Terminal Aerodrome Forecast
Issued by NWS Grand Forks, ND

Home | Current Version | Previous Version | Text Only | Print | Product List | Glossary On
Versions: 1 2 3 4 5 6 7 8 9 10 11 12 13 14
000
FTUS43 KFGF 211100
TAFFAR
TAF
KFAR 211139Z 2112/2212 30007KT P6SM SKC
      TEMPO 2112/2116 BKN007
     FM211600 33010KT P6SM BKN025
     FM220000 22004KT P6SM SKC=

USA.gov is the U.S. government's official web portal to all federal, state and local government web resources and services.